Time;durP1;ratioP1;P1;durP2;ratioP2;P2;SDS_P1;SDS_P2;PMS_P1;PMS_P2;Temp;Humidity;BMP_temperature;BMP_pressure;BME280_temperature;BME280_humidity;BME280_pressure;Samples;Min_cycle;Max_cycle;Signal;HPM_P1;HPM_P2
2021/11/24 00:01:08;;;;;;;25.20;16.67;;;0.10;99.90;;;;;;5053783;28;20059;-79
2021/11/24 00:03:33;;;;;;;24.77;16.70;;;0.10;99.90;;;;;;5052333;28;20021;-79
2021/11/24 00:05:59;;;;;;;22.87;15.70;;;0.00;99.90;;;;;;5053648;28;20033;-79
2021/11/24 00:08:25;;;;;;;24.87;16.80;;;0.00;99.90;;;;;;5050983;28;20044;-79
2021/11/24 00:10:51;;;;;;;25.27;15.73;;;0.00;99.90;;;;;;5042178;28;20025;-79
2021/11/24 00:13:16;;;;;;;28.50;17.30;;;-0.10;99.90;;;;;;5053285;28;20481;-79
2021/11/24 00:15:42;;;;;;;24.83;16.17;;;-0.10;99.90;;;;;;5053407;28;20040;-84
2021/11/24 00:18:08;;;;;;;27.07;17.10;;;0.00;99.90;;;;;;5052346;28;20412;-84
2021/11/24 00:20:33;;;;;;;25.47;16.57;;;-0.10;99.90;;;;;;5052264;28;20087;-85
2021/11/24 00:22:59;;;;;;;23.10;15.10;;;-0.10;99.90;;;;;;5052012;28;20087;-85
2021/11/24 00:25:26;;;;;;;22.90;15.17;;;0.00;99.90;;;;;;5051986;28;20025;-85
2021/11/24 00:27:52;;;;;;;22.37;15.60;;;0.00;99.90;;;;;;5052056;28;20104;-85
2021/11/24 00:30:17;;;;;;;23.43;16.07;;;0.00;99.90;;;;;;5052040;28;20112;-85
2021/11/24 00:32:43;;;;;;;24.83;16.50;;;-0.10;99.90;;;;;;5052158;28;20036;-84
2021/11/24 00:35:09;;;;;;;26.00;16.20;;;-0.20;99.90;;;;;;5052159;28;20075;-85
2021/11/24 00:37:35;;;;;;;27.33;16.57;;;-0.10;99.90;;;;;;5051561;28;20029;-84
2021/11/24 00:40:02;;;;;;;29.57;17.93;;;-0.20;99.90;;;;;;5052111;28;20025;-84
2021/11/24 00:42:28;;;;;;;27.73;17.93;;;-0.20;99.90;;;;;;5051584;28;20449;-85
2021/11/24 00:44:53;;;;;;;28.03;17.93;;;-0.20;99.90;;;;;;5050624;28;20060;-84
2021/11/24 00:47:19;;;;;;;30.07;18.43;;;-0.30;99.90;;;;;;5050494;28;20032;-85
2021/11/24 00:49:46;;;;;;;28.80;18.17;;;-0.30;99.90;;;;;;5051419;28;20033;-85
2021/11/24 00:52:11;;;;;;;25.47;17.10;;;-0.30;99.90;;;;;;5051757;28;20025;-85
2021/11/24 00:54:37;;;;;;;28.70;17.90;;;-0.30;99.90;;;;;;5051378;28;20446;-85
2021/11/24 00:57:04;;;;;;;28.40;18.70;;;-0.30;99.90;;;;;;5051883;28;20517;-84
2021/11/24 00:59:33;;;;;;;26.23;16.33;;;-0.30;99.90;;;;;;5051463;28;20078;-84
2021/11/24 01:02:01;;;;;;;26.87;15.90;;;-0.40;99.90;;;;;;5051075;28;20041;-84
2021/11/24 01:04:26;;;;;;;27.97;17.03;;;-0.30;99.90;;;;;;5051398;28;20040;-84
2021/11/24 01:06:52;;;;;;;25.97;17.60;;;-0.40;99.90;;;;;;5051144;28;20036;-84
2021/11/24 01:09:17;;;;;;;27.07;17.37;;;-0.40;99.90;;;;;;5050978;28;20074;-84
2021/11/24 01:11:43;;;;;;;27.50;18.00;;;-0.40;99.90;;;;;;5050869;28;20466;-84
2021/11/24 01:14:09;;;;;;;25.80;17.23;;;-0.50;99.90;;;;;;5051061;28;20037;-84
2021/11/24 01:16:35;;;;;;;29.80;17.53;;;-0.50;99.90;;;;;;5051809;28;20040;-82
2021/11/24 01:19:01;;;;;;;32.27;18.30;;;-0.60;99.90;;;;;;5052559;28;20033;-82
2021/11/24 01:21:27;;;;;;;31.70;18.63;;;-0.60;99.90;;;;;;5040909;28;20034;-82
2021/11/24 01:23:52;;;;;;;27.90;17.80;;;-0.60;99.90;;;;;;5048450;28;20033;-82
2021/11/24 01:26:18;;;;;;;29.13;17.27;;;-0.70;99.90;;;;;;5042005;28;20025;-82
2021/11/24 01:28:44;;;;;;;25.23;16.70;;;-0.70;99.90;;;;;;5053061;28;20851;-81
2021/11/24 01:31:09;;;;;;;28.20;18.23;;;-0.70;99.90;;;;;;5052469;28;20039;-81
2021/11/24 01:33:35;;;;;;;28.03;18.07;;;-0.60;99.90;;;;;;5052562;28;20076;-82
2021/11/24 01:36:01;;;;;;;26.17;15.77;;;-0.60;99.90;;;;;;5060927;28;20026;-81
2021/11/24 01:38:27;;;;;;;27.17;16.83;;;-0.60;99.90;;;;;;5036153;28;20026;-82
2021/11/24 01:40:52;;;;;;;32.87;18.07;;;-0.60;99.90;;;;;;5046294;28;20599;-82
2021/11/24 01:43:19;;;;;;;26.20;17.07;;;-0.60;99.90;;;;;;5052182;28;20072;-82
2021/11/24 01:45:44;;;;;;;27.33;17.50;;;-0.70;99.90;;;;;;5052484;28;20025;-82
2021/11/24 01:48:10;;;;;;;29.60;18.40;;;-0.70;99.90;;;;;;5036700;28;20105;-82
2021/11/24 01:50:36;;;;;;;27.77;16.77;;;-0.70;99.90;;;;;;5042571;28;20025;-79
2021/11/24 01:53:02;;;;;;;27.53;17.07;;;-0.70;99.90;;;;;;5048574;28;20355;-79
2021/11/24 01:55:28;;;;;;;23.80;15.87;;;-0.70;99.90;;;;;;5064462;28;20033;-79
2021/11/24 01:57:54;;;;;;;26.93;17.10;;;-0.70;99.90;;;;;;5052210;28;20082;-79
2021/11/24 02:00:24;;;;;;;31.50;18.90;;;-0.70;99.90;;;;;;5051472;28;20225;-79
2021/11/24 02:02:50;;;;;;;34.00;19.13;;;-0.80;99.90;;;;;;5045463;28;20030;-78
2021/11/24 02:05:16;;;;;;;30.77;19.07;;;-0.90;99.90;;;;;;5042466;28;20024;-79
2021/11/24 02:07:42;;;;;;;27.40;17.00;;;-0.90;99.90;;;;;;5052455;28;20087;-79
2021/11/24 02:10:08;;;;;;;29.13;18.50;;;-0.90;99.90;;;;;;5051007;28;20421;-78
2021/11/24 02:12:36;;;;;;;26.03;17.67;;;-1.00;99.90;;;;;;5054161;28;20789;-84
2021/11/24 02:15:02;;;;;;;27.67;17.50;;;-1.00;99.90;;;;;;5060549;28;20397;-84
2021/11/24 02:17:27;;;;;;;28.10;18.33;;;-0.90;99.90;;;;;;5050708;28;20082;-82
2021/11/24 02:19:53;;;;;;;27.40;18.63;;;-0.90;99.90;;;;;;5040400;28;20033;-82
2021/11/24 02:22:18;;;;;;;32.47;18.90;;;-0.90;99.90;;;;;;5038659;28;20467;-82
2021/11/24 02:24:47;;;;;;;27.70;18.30;;;-0.90;99.90;;;;;;5051951;28;20112;-82
2021/11/24 02:27:14;;;;;;;31.03;19.67;;;-0.90;99.90;;;;;;5064490;28;20025;-82
2021/11/24 02:29:44;;;;;;;26.53;17.73;;;-0.80;99.90;;;;;;5035583;28;20028;-82
2021/11/24 02:32:10;;;;;;;31.00;18.73;;;-0.80;99.90;;;;;;5043148;28;20024;-83
2021/11/24 02:34:35;;;;;;;30.70;18.37;;;-0.60;99.90;;;;;;5049316;28;20049;-82
2021/11/24 02:37:02;;;;;;;27.37;17.90;;;-0.60;99.90;;;;;;5033297;28;20532;-83
2021/11/24 02:39:27;;;;;;;29.63;19.70;;;-0.50;99.90;;;;;;5034835;28;20359;-83
2021/11/24 02:41:53;;;;;;;32.87;20.50;;;-0.50;99.90;;;;;;5049535;28;20032;-83
2021/11/24 02:44:23;;;;;;;30.57;19.47;;;-0.50;99.90;;;;;;5036091;28;20033;-83
2021/11/24 02:46:50;;;;;;;34.67;21.57;;;-0.50;99.90;;;;;;5054570;28;20037;-82
2021/11/24 02:49:16;;;;;;;41.20;23.77;;;-0.50;99.90;;;;;;5055105;28;20035;-82
2021/11/24 02:51:42;;;;;;;40.97;23.57;;;-0.40;99.90;;;;;;5055017;28;20095;-82
2021/11/24 02:54:09;;;;;;;37.67;24.40;;;-0.50;99.90;;;;;;5055325;28;20112;-82
2021/11/24 02:56:35;;;;;;;42.20;24.10;;;-0.40;99.90;;;;;;5054294;28;20087;-79
2021/11/24 02:59:02;;;;;;;36.10;21.00;;;-0.40;99.90;;;;;;5053940;28;20057;-79
2021/11/24 03:01:28;;;;;;;40.57;21.83;;;-0.30;99.90;;;;;;5068721;28;20441;-79
2021/11/24 03:03:54;;;;;;;42.87;24.37;;;-0.30;99.90;;;;;;5049999;28;20109;-79
2021/11/24 03:06:19;;;;;;;49.00;24.73;;;-0.30;99.90;;;;;;5046676;28;20032;-79
2021/11/24 03:08:45;;;;;;;48.20;26.17;;;-0.30;99.90;;;;;;5052349;28;20134;-79
2021/11/24 03:11:10;;;;;;;52.23;27.27;;;-0.20;99.90;;;;;;5043670;28;20057;-79
2021/11/24 03:13:36;;;;;;;47.73;27.30;;;-0.20;99.90;;;;;;5054634;28;20032;-79
2021/11/24 03:16:04;;;;;;;51.37;26.83;;;-0.20;99.90;;;;;;5054754;28;20078;-79
2021/11/24 03:18:29;;;;;;;46.80;26.60;;;-0.20;99.90;;;;;;5040865;28;20033;-79
2021/11/24 03:20:55;;;;;;;52.67;27.97;;;-0.20;99.90;;;;;;5048468;28;20080;-79
2021/11/24 03:23:23;;;;;;;48.00;27.03;;;-0.30;99.90;;;;;;5044131;28;20037;-79
2021/11/24 03:25:49;;;;;;;38.93;23.63;;;-0.20;99.90;;;;;;5054380;28;20017;-79
2021/11/24 03:28:14;;;;;;;41.47;22.60;;;-0.10;99.90;;;;;;5045598;28;20390;-79
2021/11/24 03:30:42;;;;;;;75.30;33.23;;;0.00;99.90;;;;;;5047249;28;20028;-82
2021/11/24 03:33:08;;;;;;;138.60;47.17;;;-0.10;99.90;;;;;;5042043;28;20055;-82
2021/11/24 03:35:35;;;;;;;46.47;24.47;;;-0.20;99.90;;;;;;5041710;28;20338;-82
2021/11/24 03:38:02;;;;;;;43.97;23.43;;;-0.20;99.90;;;;;;5053823;28;20532;-82
2021/11/24 03:40:30;;;;;;;48.90;26.10;;;-0.20;99.90;;;;;;5054413;28;20047;-82
2021/11/24 03:42:57;;;;;;;43.67;25.37;;;-0.20;99.90;;;;;;5054426;28;20021;-82
2021/11/24 03:45:26;;;;;;;48.00;26.73;;;-0.10;99.90;;;;;;5054573;28;20040;-82
2021/11/24 03:47:52;;;;;;;45.50;27.50;;;0.10;99.90;;;;;;5054808;28;20056;-83
2021/11/24 03:50:17;;;;;;;51.50;28.77;;;0.20;99.90;;;;;;5054205;28;20053;-83
2021/11/24 03:52:44;;;;;;;60.27;31.23;;;0.20;99.90;;;;;;5054587;28;20068;-83
2021/11/24 03:55:12;;;;;;;53.80;29.87;;;0.20;99.90;;;;;;5054448;28;20032;-83
2021/11/24 03:57:38;;;;;;;57.07;31.23;;;0.30;99.90;;;;;;5054231;28;20529;-83
2021/11/24 04:00:07;;;;;;;52.70;30.23;;;0.30;99.90;;;;;;5039957;28;20105;-83
2021/11/24 04:02:33;;;;;;;59.23;33.83;;;0.40;99.90;;;;;;5052639;28;20033;-83
2021/11/24 04:04:58;;;;;;;65.73;38.13;;;0.40;99.90;;;;;;5054114;28;20157;-83
2021/11/24 04:07:24;;;;;;;59.60;32.83;;;0.30;99.90;;;;;;5053744;28;20041;-83
2021/11/24 04:09:50;;;;;;;54.40;29.73;;;0.40;99.90;;;;;;5050030;28;20472;-83
2021/11/24 04:12:15;;;;;;;59.67;31.13;;;0.50;99.90;;;;;;5053945;28;20021;-83
2021/11/24 04:14:44;;;;;;;57.97;33.33;;;0.60;99.90;;;;;;5063632;28;20360;-83
2021/11/24 04:17:09;;;;;;;53.67;28.90;;;0.50;99.90;;;;;;5073974;28;20096;-83
2021/11/24 04:19:35;;;;;;;52.10;28.60;;;0.40;99.90;;;;;;5066215;28;20100;-83
2021/11/24 04:22:01;;;;;;;51.37;26.03;;;0.40;99.90;;;;;;5053761;28;20092;-83
2021/11/24 04:24:26;;;;;;;52.87;26.67;;;0.40;99.90;;;;;;5045318;28;20393;-83
2021/11/24 04:26:53;;;;;;;54.97;28.33;;;0.30;99.90;;;;;;5062286;28;20029;-83
2021/11/24 04:29:19;;;;;;;58.47;28.50;;;0.30;99.90;;;;;;5053698;28;20037;-83
2021/11/24 04:31:44;;;;;;;47.70;27.57;;;0.30;99.90;;;;;;5053771;28;20025;-83
2021/11/24 04:34:10;;;;;;;54.33;27.60;;;0.20;99.90;;;;;;5055004;28;20498;-83
2021/11/24 04:36:36;;;;;;;55.93;26.30;;;0.20;99.90;;;;;;5058085;28;20061;-83
2021/11/24 04:39:03;;;;;;;58.80;28.73;;;0.20;99.90;;;;;;5033620;28;20104;-83
2021/11/24 04:41:29;;;;;;;57.50;27.00;;;0.10;99.90;;;;;;5039349;28;20029;-84
2021/11/24 04:43:54;;;;;;;85.33;30.93;;;0.20;99.90;;;;;;5053363;28;20068;-84
2021/11/24 04:46:20;;;;;;;60.17;27.57;;;0.20;99.90;;;;;;5053249;28;20074;-83
2021/11/24 04:48:46;;;;;;;58.50;28.10;;;0.10;99.90;;;;;;5052174;28;20071;-83
2021/11/24 04:51:11;;;;;;;63.67;28.00;;;0.20;99.90;;;;;;5052776;28;20496;-79
2021/11/24 04:53:37;;;;;;;65.07;27.53;;;0.30;99.90;;;;;;5052585;28;20025;-79
2021/11/24 04:56:03;;;;;;;61.23;27.53;;;0.20;99.90;;;;;;5039156;28;20028;-83
2021/11/24 04:58:29;;;;;;;52.67;26.60;;;0.20;99.90;;;;;;5067021;28;20017;-83
2021/11/24 05:00:54;;;;;;;57.77;28.60;;;0.20;99.90;;;;;;5053242;28;20077;-83
2021/11/24 05:03:20;;;;;;;54.80;27.53;;;0.40;99.90;;;;;;5053191;28;20036;-82
2021/11/24 05:05:46;;;;;;;59.67;29.83;;;0.40;99.90;;;;;;5053138;28;20032;-83
2021/11/24 05:08:11;;;;;;;69.93;28.50;;;0.40;99.90;;;;;;5052923;28;20029;-83
2021/11/24 05:10:37;;;;;;;57.70;28.53;;;0.40;99.90;;;;;;5056632;28;20473;-83
2021/11/24 05:13:05;;;;;;;65.17;29.30;;;0.30;99.90;;;;;;5063300;28;20033;-83
2021/11/24 05:15:34;;;;;;;62.00;29.17;;;0.30;99.90;;;;;;5052985;28;20059;-83
2021/11/24 05:18:05;;;;;;;60.80;29.20;;;0.20;99.90;;;;;;5052786;28;20108;-85
2021/11/24 05:20:32;;;;;;;54.47;26.50;;;0.20;99.90;;;;;;5049537;28;20029;-84
2021/11/24 05:23:02;;;;;;;54.97;29.07;;;0.20;99.90;;;;;;5072264;28;20024;-83
2021/11/24 05:25:28;;;;;;;56.03;27.30;;;0.20;99.90;;;;;;5042789;28;20030;-83
2021/11/24 05:27:55;;;;;;;59.67;31.70;;;0.20;99.90;;;;;;5065609;28;20078;-85
2021/11/24 05:30:21;;;;;;;76.83;27.53;;;0.20;99.90;;;;;;5052697;28;20069;-85
2021/11/24 05:32:47;;;;;;;68.43;27.70;;;0.10;99.90;;;;;;5038296;28;20017;-85
2021/11/24 05:35:13;;;;;;;57.57;24.97;;;0.20;99.90;;;;;;5052387;28;20381;-86
2021/11/24 05:37:38;;;;;;;48.67;24.43;;;0.20;99.90;;;;;;5052458;28;20029;-83
2021/11/24 05:40:05;;;;;;;58.23;25.10;;;0.10;99.90;;;;;;5060898;28;20029;-81
2021/11/24 05:42:30;;;;;;;64.57;24.70;;;0.20;99.90;;;;;;5071376;28;20032;-72
2021/11/24 05:47:54;;;;;;;60.87;25.73;;;0.20;99.90;;;;;;5022327;28;20030;-81
2021/11/24 05:50:21;;;;;;;58.90;25.27;;;0.10;99.90;;;;;;5052118;28;20039;-81
2021/11/24 05:52:48;;;;;;;75.23;25.03;;;0.10;99.90;;;;;;5037089;28;20106;-87
2021/11/24 05:55:13;;;;;;;58.53;24.93;;;0.00;99.90;;;;;;5050280;28;20478;-87
2021/11/24 05:57:39;;;;;;;57.17;25.53;;;0.00;99.90;;;;;;5052158;28;20025;-81
2021/11/24 06:00:05;;;;;;;52.37;23.50;;;0.00;99.90;;;;;;5066094;28;20078;-82
2021/11/24 06:02:31;;;;;;;65.50;26.17;;;0.00;99.90;;;;;;5061411;28;20028;-68
2021/11/24 06:04:57;;;;;;;58.40;24.83;;;-0.10;99.90;;;;;;5050284;28;20017;-82
2021/11/24 06:07:23;;;;;;;57.13;22.87;;;-0.10;99.90;;;;;;5049291;28;20017;-81
2021/11/24 06:09:49;;;;;;;61.73;26.37;;;0.10;99.90;;;;;;5049324;28;20552;-82
2021/11/24 06:12:14;;;;;;;68.87;24.93;;;0.00;99.90;;;;;;5050477;28;20028;-82
2021/11/24 06:14:40;;;;;;;72.47;28.67;;;0.00;99.90;;;;;;5053759;28;20021;-82
2021/11/24 06:17:06;;;;;;;74.77;32.90;;;-0.10;99.90;;;;;;5053962;28;20098;-82
2021/11/24 06:19:31;;;;;;;72.43;34.97;;;-0.10;99.90;;;;;;5053481;28;20036;-82
2021/11/24 06:21:57;;;;;;;87.63;34.20;;;0.00;99.90;;;;;;5053728;28;20056;-82
2021/11/24 06:24:22;;;;;;;80.50;31.80;;;0.00;99.90;;;;;;5054071;28;20036;-82
2021/11/24 06:26:48;;;;;;;83.87;40.47;;;-0.10;99.90;;;;;;5054792;28;20043;-82
2021/11/24 06:29:13;;;;;;;62.57;28.73;;;-0.10;99.90;;;;;;5054462;28;20024;-82
2021/11/24 06:31:39;;;;;;;62.30;25.30;;;-0.10;99.90;;;;;;5054386;28;20043;-84
2021/11/24 06:34:04;;;;;;;64.87;25.03;;;0.00;99.90;;;;;;5053833;28;20091;-82
2021/11/24 06:36:30;;;;;;;58.47;24.63;;;-0.10;99.90;;;;;;5054123;28;20021;-82
2021/11/24 06:38:55;;;;;;;73.33;26.13;;;-0.10;99.90;;;;;;5056156;28;20032;-79
2021/11/24 06:41:21;;;;;;;69.47;27.63;;;-0.10;99.90;;;;;;5055330;28;20021;-81
2021/11/24 06:43:47;;;;;;;61.83;24.87;;;-0.10;99.90;;;;;;5055714;28;20412;-82
2021/11/24 06:46:15;;;;;;;67.47;27.27;;;-0.10;99.90;;;;;;5049630;28;20401;-82
2021/11/24 06:48:40;;;;;;;52.60;24.20;;;-0.20;99.90;;;;;;5044612;28;20524;-82
2021/11/24 06:51:06;;;;;;;51.57;25.47;;;-0.10;99.90;;;;;;5044772;28;20021;-82
2021/11/24 06:53:32;;;;;;;48.67;21.60;;;0.00;99.90;;;;;;5039140;28;20079;-84
2021/11/24 06:55:57;;;;;;;45.47;20.43;;;0.10;99.90;;;;;;5045163;28;20495;-84
2021/11/24 06:58:23;;;;;;;50.27;22.17;;;0.10;99.90;;;;;;5046428;28;20056;-82
2021/11/24 07:00:49;;;;;;;52.97;23.20;;;0.10;99.90;;;;;;5041885;28;20033;-82
2021/11/24 07:03:14;;;;;;;49.93;20.40;;;0.00;99.90;;;;;;5041136;28;20524;-84
2021/11/24 07:05:42;;;;;;;44.90;19.57;;;0.00;99.90;;;;;;5042481;28;20029;-82
2021/11/24 07:08:08;;;;;;;42.87;19.73;;;0.10;99.90;;;;;;5043843;28;20086;-84
2021/11/24 07:10:33;;;;;;;58.63;20.87;;;0.10;99.90;;;;;;5048800;28;20021;-84
2021/11/24 07:13:00;;;;;;;50.90;21.93;;;0.10;99.90;;;;;;5043945;28;20101;-82
2021/11/24 07:15:26;;;;;;;40.43;20.47;;;0.00;99.90;;;;;;5044136;28;20029;-81
2021/11/24 07:17:55;;;;;;;41.60;19.97;;;0.00;99.90;;;;;;5046135;28;20129;-83
2021/11/24 07:20:23;;;;;;;44.67;21.27;;;0.00;99.90;;;;;;5047669;28;20040;-83
2021/11/24 07:22:49;;;;;;;48.33;23.37;;;0.00;99.90;;;;;;5038989;28;20033;-82
2021/11/24 07:25:15;;;;;;;44.00;20.47;;;0.00;99.90;;;;;;5038196;28;20027;-82
2021/11/24 07:27:41;;;;;;;44.93;21.67;;;0.10;99.90;;;;;;5043914;28;20039;-81
2021/11/24 07:30:08;;;;;;;43.50;19.43;;;0.20;99.90;;;;;;5043573;28;20093;-84
2021/11/24 07:32:34;;;;;;;41.60;21.27;;;0.20;99.90;;;;;;5039254;28;20533;-82
2021/11/24 07:35:01;;;;;;;49.20;21.17;;;0.10;99.90;;;;;;5039772;28;20854;-82
2021/11/24 07:37:28;;;;;;;53.13;22.63;;;0.00;99.90;;;;;;5047214;28;20120;-83
2021/11/24 07:39:54;;;;;;;45.17;21.67;;;0.00;99.90;;;;;;5042634;28;20100;-83
2021/11/24 07:42:19;;;;;;;41.20;21.13;;;0.10;99.90;;;;;;5045481;28;20137;-79
2021/11/24 07:44:45;;;;;;;43.50;25.43;;;0.00;99.90;;;;;;5044088;28;20024;-79
2021/11/24 07:47:12;;;;;;;41.10;23.40;;;0.10;99.90;;;;;;5043481;28;20026;-79
2021/11/24 07:49:38;;;;;;;40.73;21.30;;;0.10;99.90;;;;;;5043469;28;20507;-80
2021/11/24 07:52:04;;;;;;;31.57;18.53;;;0.10;99.90;;;;;;5041477;28;20030;-79
2021/11/24 07:54:30;;;;;;;38.53;19.93;;;0.20;99.90;;;;;;5043436;28;20352;-79
2021/11/24 07:56:56;;;;;;;33.23;19.40;;;0.30;99.90;;;;;;5042676;28;20032;-79
2021/11/24 07:59:25;;;;;;;35.93;18.90;;;0.30;99.90;;;;;;5039497;28;20170;-82
2021/11/24 08:01:51;;;;;;;32.93;18.10;;;0.30;99.90;;;;;;5037686;28;20049;-79
2021/11/24 08:04:17;;;;;;;32.30;19.40;;;0.40;99.90;;;;;;5041045;28;20858;-79
2021/11/24 08:06:43;;;;;;;37.13;20.07;;;0.30;99.90;;;;;;5043903;28;20032;-79
2021/11/24 08:09:09;;;;;;;35.33;18.33;;;0.40;99.90;;;;;;5044391;28;20029;-83
2021/11/24 08:11:35;;;;;;;33.07;19.37;;;0.50;99.90;;;;;;5045242;28;20070;-83
2021/11/24 08:14:01;;;;;;;39.17;20.07;;;0.50;99.90;;;;;;5043419;28;20052;-82
2021/11/24 08:16:27;;;;;;;38.43;21.57;;;0.40;99.90;;;;;;5047831;28;20025;-82
2021/11/24 08:18:53;;;;;;;35.00;19.27;;;0.40;99.90;;;;;;5044394;28;20021;-82
2021/11/24 08:21:19;;;;;;;37.30;19.13;;;0.50;99.90;;;;;;5042647;28;20025;-82
2021/11/24 08:23:45;;;;;;;34.07;19.60;;;0.60;99.90;;;;;;5049055;28;20033;-82
2021/11/24 08:26:16;;;;;;;33.33;18.47;;;0.60;99.90;;;;;;5041520;28;20027;-83
2021/11/24 08:28:44;;;;;;;32.73;18.47;;;0.60;99.90;;;;;;5042525;28;20025;-82
2021/11/24 08:31:12;;;;;;;34.00;19.03;;;0.70;99.90;;;;;;5045743;28;20508;-82
2021/11/24 08:33:40;;;;;;;38.23;19.80;;;0.60;99.90;;;;;;5045195;28;20116;-82
2021/11/24 08:36:06;;;;;;;36.53;19.00;;;0.60;99.90;;;;;;5047000;28;20385;-82
2021/11/24 08:38:33;;;;;;;34.37;20.83;;;0.50;99.90;;;;;;5041513;28;20021;-83
2021/11/24 08:41:02;;;;;;;30.90;18.63;;;0.60;99.90;;;;;;5043266;28;20037;-85
2021/11/24 08:43:27;;;;;;;33.80;20.13;;;0.60;99.90;;;;;;5039956;28;20037;-80
2021/11/24 08:45:58;;;;;;;39.47;20.90;;;0.50;99.90;;;;;;5042107;28;20428;-80
2021/11/24 08:48:24;;;;;;;37.33;20.13;;;0.60;99.90;;;;;;5041926;28;20045;-80
2021/11/24 08:50:52;;;;;;;37.20;23.47;;;0.50;99.90;;;;;;5039115;28;20167;-80
2021/11/24 08:53:19;;;;;;;36.83;19.93;;;0.50;99.90;;;;;;5039491;28;20470;-80
2021/11/24 08:55:45;;;;;;;35.73;19.43;;;0.50;99.90;;;;;;5038923;28;20040;-80
2021/11/24 08:58:12;;;;;;;33.20;20.00;;;0.50;99.90;;;;;;5039400;28;20426;-80
2021/11/24 09:00:37;;;;;;;35.50;19.93;;;0.50;99.90;;;;;;5039614;28;20108;-80
2021/11/24 09:03:04;;;;;;;40.73;21.47;;;0.50;99.90;;;;;;5038903;28;20507;-83
2021/11/24 09:05:29;;;;;;;35.13;20.17;;;0.50;99.90;;;;;;5038309;28;20457;-84
2021/11/24 09:07:56;;;;;;;33.73;17.70;;;0.70;99.90;;;;;;5039180;28;20060;-84
2021/11/24 09:10:22;;;;;;;37.27;19.73;;;0.80;99.90;;;;;;5041247;28;20029;-80
2021/11/24 09:12:47;;;;;;;35.40;19.53;;;0.80;99.90;;;;;;5038762;28;20021;-80
2021/11/24 09:15:15;;;;;;;36.07;19.77;;;0.80;99.90;;;;;;5037027;28;20037;-81
2021/11/24 09:17:41;;;;;;;32.00;18.57;;;1.00;99.90;;;;;;5038458;28;20020;-82
2021/11/24 09:20:07;;;;;;;32.43;19.60;;;1.10;99.90;;;;;;5034966;28;20354;-81
2021/11/24 09:22:34;;;;;;;33.23;18.57;;;1.20;99.90;;;;;;5035084;28;20131;-82
2021/11/24 09:25:04;;;;;;;37.37;21.67;;;1.20;99.90;;;;;;5037237;28;20439;-82
2021/11/24 09:27:31;;;;;;;40.70;21.97;;;1.10;99.90;;;;;;5037943;28;20065;-82
2021/11/24 09:29:58;;;;;;;52.50;28.83;;;1.10;99.90;;;;;;5037053;28;20458;-82
2021/11/24 09:32:25;;;;;;;56.17;32.70;;;0.90;99.90;;;;;;5037250;28;20033;-82
2021/11/24 09:34:53;;;;;;;47.57;25.27;;;0.90;99.90;;;;;;5040021;28;20369;-81
2021/11/24 09:37:19;;;;;;;50.80;30.47;;;0.80;99.90;;;;;;5038325;28;20643;-80
2021/11/24 09:39:45;;;;;;;42.57;23.10;;;0.80;99.90;;;;;;5039562;28;20048;-80
2021/11/24 09:42:15;;;;;;;51.53;27.63;;;0.80;99.90;;;;;;5037876;28;20115;-81
2021/11/24 09:44:45;;;;;;;31.60;18.13;;;0.90;99.90;;;;;;5038612;28;20541;-81
2021/11/24 09:47:14;;;;;;;51.60;28.43;;;0.90;99.90;;;;;;5041872;28;20022;-80
2021/11/24 09:49:40;;;;;;;95.20;57.00;;;0.80;99.90;;;;;;5044888;28;20029;-81
2021/11/24 09:52:07;;;;;;;37.33;23.30;;;0.80;99.90;;;;;;5044318;28;20022;-81
2021/11/24 09:54:32;;;;;;;31.10;19.43;;;0.80;99.90;;;;;;5042763;28;20078;-81
2021/11/24 09:56:58;;;;;;;40.63;22.77;;;0.90;99.90;;;;;;5041280;28;20552;-80
2021/11/24 09:59:24;;;;;;;32.07;18.53;;;0.90;99.90;;;;;;5042922;28;20045;-81
2021/11/24 10:01:49;;;;;;;32.47;19.47;;;0.90;99.90;;;;;;5043669;28;20041;-81
2021/11/24 10:04:15;;;;;;;32.73;19.23;;;0.80;99.90;;;;;;5043582;28;20037;-81
2021/11/24 10:06:41;;;;;;;29.77;16.93;;;0.80;99.90;;;;;;5041866;28;20485;-81
2021/11/24 10:09:09;;;;;;;25.47;15.03;;;0.80;99.90;;;;;;5043971;28;20056;-81
2021/11/24 10:11:36;;;;;;;23.83;15.70;;;0.80;99.90;;;;;;5044146;28;20029;-85
2021/11/24 10:14:05;;;;;;;25.70;14.90;;;0.90;99.90;;;;;;5045637;28;20032;-85
2021/11/24 10:16:34;;;;;;;28.83;15.33;;;0.90;99.90;;;;;;5046565;28;20049;-82
2021/11/24 10:19:12;;;;;;;29.33;16.67;;;0.80;99.90;;;;;;5042415;28;20033;-82
2021/11/24 10:21:59;;;;;;;24.97;15.33;;;0.90;99.90;;;;;;5040445;28;20035;-82
2021/11/24 10:24:34;;;;;;;23.57;14.57;;;1.10;99.90;;;;;;5041053;28;20064;-83
2021/11/24 10:27:02;;;;;;;25.30;17.03;;;1.00;99.90;;;;;;5039645;28;20450;-82
2021/11/24 10:29:29;;;;;;;26.23;17.03;;;0.90;99.90;;;;;;5040171;28;20032;-82
2021/11/24 10:32:03;;;;;;;23.40;13.43;;;0.90;99.90;;;;;;5054990;28;20034;-82
2021/11/24 10:34:38;;;;;;;19.47;12.97;;;0.80;99.90;;;;;;5044977;28;20045;-82
2021/11/24 10:37:10;;;;;;;22.00;13.23;;;0.90;99.90;;;;;;5046597;28;20389;-82
2021/11/24 10:39:42;;;;;;;20.47;13.00;;;1.00;99.90;;;;;;5043207;28;20033;-82
2021/11/24 10:42:12;;;;;;;21.50;12.63;;;1.00;99.90;;;;;;5045533;28;20440;-82
2021/11/24 10:44:41;;;;;;;21.07;12.50;;;0.90;99.90;;;;;;5043821;28;20040;-82
2021/11/24 10:47:07;;;;;;;21.40;12.27;;;0.90;99.90;;;;;;5043098;28;20024;-82
2021/11/24 10:49:43;;;;;;;20.50;13.70;;;0.90;99.90;;;;;;5042588;28;20033;-83
2021/11/24 10:52:25;;;;;;;19.77;12.43;;;0.70;99.90;;;;;;5045991;28;20052;-82
2021/11/24 10:55:06;;;;;;;16.80;11.07;;;0.70;99.90;;;;;;5043878;28;20034;-80
2021/11/24 10:57:34;;;;;;;17.27;10.83;;;0.80;99.90;;;;;;5045350;28;20021;-81
2021/11/24 11:00:12;;;;;;;17.03;11.10;;;1.00;99.90;;;;;;5044269;28;20067;-81
2021/11/24 11:02:41;;;;;;;19.87;12.10;;;0.90;99.90;;;;;;5046098;28;20478;-82
2021/11/24 11:05:15;;;;;;;19.50;11.97;;;0.80;99.90;;;;;;5045905;28;20047;-82
2021/11/24 11:07:52;;;;;;;18.73;11.27;;;0.80;99.90;;;;;;5052596;28;20025;-82
2021/11/24 11:10:33;;;;;;;19.10;10.73;;;0.80;99.90;;;;;;5067643;28;20051;-83
2021/11/24 11:13:06;;;;;;;16.13;10.73;;;0.70;99.90;;;;;;5043192;28;20040;-82
2021/11/24 11:15:36;;;;;;;18.93;11.90;;;0.80;99.90;;;;;;5057071;28;20096;-82
2021/11/24 11:18:04;;;;;;;20.03;11.20;;;0.70;99.90;;;;;;5065973;28;20064;-82
2021/11/24 11:20:41;;;;;;;16.43;11.00;;;0.80;99.90;;;;;;5054395;28;20401;-82
2021/11/24 11:23:21;;;;;;;18.87;11.93;;;0.70;99.90;;;;;;5054684;28;20037;-82
2021/11/24 11:26:00;;;;;;;20.60;11.27;;;0.60;99.90;;;;;;5068930;28;20032;-83
2021/11/24 11:28:32;;;;;;;17.33;10.77;;;0.60;99.90;;;;;;5065023;28;20028;-82
2021/11/24 11:31:01;;;;;;;16.30;9.67;;;0.70;99.90;;;;;;5054092;28;20076;-82
2021/11/24 11:33:31;;;;;;;18.17;11.13;;;0.70;99.90;;;;;;5044207;28;20099;-83
2021/11/24 11:36:01;;;;;;;17.90;11.73;;;0.70;99.90;;;;;;5054471;28;20037;-82
2021/11/24 11:38:27;;;;;;;15.87;10.80;;;0.70;99.90;;;;;;5054521;28;20541;-83
2021/11/24 11:40:53;;;;;;;20.37;13.53;;;0.80;99.90;;;;;;5054548;28;20064;-82
2021/11/24 11:43:24;;;;;;;19.10;12.30;;;0.90;99.90;;;;;;5055859;28;20068;-82
2021/11/24 11:45:50;;;;;;;20.83;13.17;;;0.90;99.90;;;;;;5066995;28;20449;-82
2021/11/24 11:48:26;;;;;;;24.87;14.77;;;0.70;99.90;;;;;;5054260;28;20115;-82
2021/11/24 11:51:03;;;;;;;25.83;13.50;;;0.60;99.90;;;;;;5053022;28;20116;-83
2021/11/24 11:53:39;;;;;;;21.63;13.57;;;0.70;99.90;;;;;;5032993;28;20135;-83
2021/11/24 11:56:21;;;;;;;22.87;13.50;;;0.70;99.90;;;;;;5043039;28;20029;-83
2021/11/24 11:58:52;;;;;;;19.77;12.50;;;0.70;99.90;;;;;;5041112;28;20112;-82
2021/11/24 12:01:19;;;;;;;49.23;30.67;;;0.90;99.90;;;;;;5045874;28;20029;-82
2021/11/24 12:03:53;;;;;;;22.10;12.90;;;0.70;99.90;;;;;;5041014;28;20045;-82
2021/11/24 12:06:22;;;;;;;25.60;16.07;;;0.80;99.90;;;;;;5044623;28;20029;-82
2021/11/24 12:09:25;;;;;;;24.17;14.07;;;0.90;99.90;;;;;;5040461;28;20123;-82
2021/11/24 12:12:09;;;;;;;37.07;21.70;;;1.00;99.90;;;;;;5016585;28;20065;-81
2021/11/24 12:14:58;;;;;;;24.73;14.57;;;0.90;99.90;;;;;;5041649;28;20460;-81
2021/11/24 12:20:18;;;;;;;29.70;18.07;;;0.80;99.90;;;;;;5042344;28;20037;-81
2021/11/24 12:22:57;;;;;;;30.83;18.07;;;0.70;99.90;;;;;;5033118;28;20386;-81
2021/11/24 12:25:26;;;;;;;30.03;16.93;;;0.90;99.90;;;;;;5043165;28;20040;-80
2021/11/24 12:27:54;;;;;;;30.10;17.10;;;1.00;99.90;;;;;;5041323;28;20481;-80
2021/11/24 12:33:26;;;;;;;36.03;19.40;;;0.90;99.90;;;;;;5039115;28;20119;-82
2021/11/24 12:35:55;;;;;;;30.47;17.40;;;0.90;99.90;;;;;;5039493;28;20052;-82
2021/11/24 12:38:24;;;;;;;33.63;20.07;;;0.90;99.90;;;;;;5038873;28;20036;-82
2021/11/24 12:40:52;;;;;;;33.87;18.67;;;0.90;99.90;;;;;;5039909;28;20336;-82
2021/11/24 12:43:20;;;;;;;31.50;18.27;;;0.80;99.90;;;;;;5038755;28;20041;-82